sensor_id;sensor_type;location;lat;lon;timestamp;P1;durP1;ratioP1;P2;durP2;ratioP2
15256;SDS011;7731;50.720;6.912;2023-07-31T00:00:09;5.38;;;3.28;;
15256;SDS011;7731;50.720;6.912;2023-07-31T00:02:43;5.53;;;3.47;;
15256;SDS011;7731;50.720;6.912;2023-07-31T00:05:17;6.07;;;3.78;;
15256;SDS011;7731;50.720;6.912;2023-07-31T00:07:47;5.22;;;3.38;;
15256;SDS011;7731;50.720;6.912;2023-07-31T00:10:17;6.70;;;3.55;;
15256;SDS011;7731;50.720;6.912;2023-07-31T00:12:48;6.68;;;3.50;;
15256;SDS011;7731;50.720;6.912;2023-07-31T00:15:21;5.28;;;2.83;;
15256;SDS011;7731;50.720;6.912;2023-07-31T00:17:59;3.65;;;2.60;;
15256;SDS011;7731;50.720;6.912;2023-07-31T00:20:32;4.22;;;3.05;;
15256;SDS011;7731;50.720;6.912;2023-07-31T00:23:03;4.55;;;3.03;;
15256;SDS011;7731;50.720;6.912;2023-07-31T00:25:36;4.78;;;2.75;;
15256;SDS011;7731;50.720;6.912;2023-07-31T00:28:06;3.85;;;2.83;;
15256;SDS011;7731;50.720;6.912;2023-07-31T00:30:39;4.38;;;2.67;;
15256;SDS011;7731;50.720;6.912;2023-07-31T00:33:12;4.78;;;2.78;;
15256;SDS011;7731;50.720;6.912;2023-07-31T00:35:46;6.13;;;2.22;;
15256;SDS011;7731;50.720;6.912;2023-07-31T00:38:17;3.67;;;2.55;;
15256;SDS011;7731;50.720;6.912;2023-07-31T00:40:53;4.93;;;2.80;;
15256;SDS011;7731;50.720;6.912;2023-07-31T00:43:28;2.60;;;2.40;;
15256;SDS011;7731;50.720;6.912;2023-07-31T00:46:00;4.30;;;2.67;;
15256;SDS011;7731;50.720;6.912;2023-07-31T00:48:34;3.28;;;2.60;;
15256;SDS011;7731;50.720;6.912;2023-07-31T00:51:23;3.33;;;2.45;;
15256;SDS011;7731;50.720;6.912;2023-07-31T00:54:01;3.03;;;2.50;;
15256;SDS011;7731;50.720;6.912;2023-07-31T00:56:32;3.47;;;2.45;;
15256;SDS011;7731;50.720;6.912;2023-07-31T00:59:03;3.63;;;2.60;;
15256;SDS011;7731;50.720;6.912;2023-07-31T01:01:36;3.38;;;2.28;;
15256;SDS011;7731;50.720;6.912;2023-07-31T01:04:17;3.58;;;2.40;;
15256;SDS011;7731;50.720;6.912;2023-07-31T01:07:01;3.10;;;2.35;;
15256;SDS011;7731;50.720;6.912;2023-07-31T01:09:44;2.85;;;2.03;;
15256;SDS011;7731;50.720;6.912;2023-07-31T01:12:24;2.30;;;2.08;;
15256;SDS011;7731;50.720;6.912;2023-07-31T01:15:02;2.65;;;2.33;;
15256;SDS011;7731;50.720;6.912;2023-07-31T01:17:37;3.13;;;2.28;;
15256;SDS011;7731;50.720;6.912;2023-07-31T01:20:16;3.92;;;2.42;;
15256;SDS011;7731;50.720;6.912;2023-07-31T01:22:59;5.30;;;2.60;;
15256;SDS011;7731;50.720;6.912;2023-07-31T01:26:06;2.83;;;2.20;;
15256;SDS011;7731;50.720;6.912;2023-07-31T01:28:48;5.18;;;2.20;;
15256;SDS011;7731;50.720;6.912;2023-07-31T01:31:25;3.78;;;2.15;;
15256;SDS011;7731;50.720;6.912;2023-07-31T01:34:00;3.25;;;2.30;;
15256;SDS011;7731;50.720;6.912;2023-07-31T01:36:32;3.60;;;2.63;;
15256;SDS011;7731;50.720;6.912;2023-07-31T01:39:03;5.57;;;2.50;;
15256;SDS011;7731;50.720;6.912;2023-07-31T01:41:38;5.60;;;2.92;;
15256;SDS011;7731;50.720;6.912;2023-07-31T01:44:09;3.63;;;2.63;;
15256;SDS011;7731;50.720;6.912;2023-07-31T01:46:39;4.10;;;2.90;;
15256;SDS011;7731;50.720;6.912;2023-07-31T01:49:17;3.53;;;2.88;;
15256;SDS011;7731;50.720;6.912;2023-07-31T01:51:53;3.70;;;2.80;;
15256;SDS011;7731;50.720;6.912;2023-07-31T01:54:31;3.20;;;2.90;;
15256;SDS011;7731;50.720;6.912;2023-07-31T01:57:06;2.97;;;2.20;;
15256;SDS011;7731;50.720;6.912;2023-07-31T01:59:36;4.57;;;3.10;;
15256;SDS011;7731;50.720;6.912;2023-07-31T02:02:06;4.53;;;3.00;;
15256;SDS011;7731;50.720;6.912;2023-07-31T02:04:37;3.20;;;2.55;;
15256;SDS011;7731;50.720;6.912;2023-07-31T02:07:07;5.65;;;3.15;;
15256;SDS011;7731;50.720;6.912;2023-07-31T02:09:38;8.75;;;3.70;;
15256;SDS011;7731;50.720;6.912;2023-07-31T02:15:06;5.80;;;3.60;;
15256;SDS011;7731;50.720;6.912;2023-07-31T02:17:39;4.68;;;3.25;;
15256;SDS011;7731;50.720;6.912;2023-07-31T02:20:10;4.20;;;2.83;;
15256;SDS011;7731;50.720;6.912;2023-07-31T02:22:40;4.28;;;3.25;;
15256;SDS011;7731;50.720;6.912;2023-07-31T02:25:13;4.88;;;3.17;;
15256;SDS011;7731;50.720;6.912;2023-07-31T02:27:49;5.93;;;3.40;;
15256;SDS011;7731;50.720;6.912;2023-07-31T02:30:20;8.27;;;3.97;;
15256;SDS011;7731;50.720;6.912;2023-07-31T02:32:50;3.78;;;2.97;;
15256;SDS011;7731;50.720;6.912;2023-07-31T02:35:24;5.35;;;3.25;;
15256;SDS011;7731;50.720;6.912;2023-07-31T02:37:57;6.45;;;3.13;;
15256;SDS011;7731;50.720;6.912;2023-07-31T02:40:30;5.40;;;3.58;;
15256;SDS011;7731;50.720;6.912;2023-07-31T02:43:05;6.90;;;3.15;;
15256;SDS011;7731;50.720;6.912;2023-07-31T02:45:42;5.32;;;2.85;;
15256;SDS011;7731;50.720;6.912;2023-07-31T02:48:13;6.82;;;3.17;;
15256;SDS011;7731;50.720;6.912;2023-07-31T02:50:43;5.40;;;2.88;;
15256;SDS011;7731;50.720;6.912;2023-07-31T02:53:14;6.05;;;3.20;;
15256;SDS011;7731;50.720;6.912;2023-07-31T02:55:44;3.92;;;3.03;;
15256;SDS011;7731;50.720;6.912;2023-07-31T02:58:17;5.63;;;2.70;;
15256;SDS011;7731;50.720;6.912;2023-07-31T03:00:47;4.20;;;3.20;;
15256;SDS011;7731;50.720;6.912;2023-07-31T03:03:18;4.97;;;3.50;;
15256;SDS011;7731;50.720;6.912;2023-07-31T03:05:51;4.88;;;3.10;;
15256;SDS011;7731;50.720;6.912;2023-07-31T03:08:21;10.25;;;3.45;;
15256;SDS011;7731;50.720;6.912;2023-07-31T03:10:52;4.82;;;3.72;;
15256;SDS011;7731;50.720;6.912;2023-07-31T03:13:25;6.28;;;3.40;;
15256;SDS011;7731;50.720;6.912;2023-07-31T03:15:55;8.48;;;3.38;;
15256;SDS011;7731;50.720;6.912;2023-07-31T03:18:25;7.10;;;3.22;;
15256;SDS011;7731;50.720;6.912;2023-07-31T03:20:56;4.07;;;3.33;;
15256;SDS011;7731;50.720;6.912;2023-07-31T03:23:26;5.78;;;3.28;;
15256;SDS011;7731;50.720;6.912;2023-07-31T03:26:06;5.93;;;3.50;;
15256;SDS011;7731;50.720;6.912;2023-07-31T03:28:40;4.10;;;2.92;;
15256;SDS011;7731;50.720;6.912;2023-07-31T03:31:10;4.85;;;3.60;;
15256;SDS011;7731;50.720;6.912;2023-07-31T03:33:45;5.15;;;3.60;;
15256;SDS011;7731;50.720;6.912;2023-07-31T03:36:18;5.60;;;3.22;;
15256;SDS011;7731;50.720;6.912;2023-07-31T03:38:49;5.10;;;3.08;;
15256;SDS011;7731;50.720;6.912;2023-07-31T03:41:20;4.30;;;3.45;;
15256;SDS011;7731;50.720;6.912;2023-07-31T03:43:56;5.03;;;3.33;;
15256;SDS011;7731;50.720;6.912;2023-07-31T03:46:31;5.70;;;3.00;;
15256;SDS011;7731;50.720;6.912;2023-07-31T03:49:05;4.32;;;3.13;;
15256;SDS011;7731;50.720;6.912;2023-07-31T03:51:35;4.10;;;3.10;;
15256;SDS011;7731;50.720;6.912;2023-07-31T03:54:06;5.22;;;3.30;;
15256;SDS011;7731;50.720;6.912;2023-07-31T03:56:39;4.22;;;3.22;;
15256;SDS011;7731;50.720;6.912;2023-07-31T03:59:12;5.72;;;3.42;;
15256;SDS011;7731;50.720;6.912;2023-07-31T04:01:43;4.85;;;3.65;;
15256;SDS011;7731;50.720;6.912;2023-07-31T04:04:13;5.57;;;3.42;;
15256;SDS011;7731;50.720;6.912;2023-07-31T04:06:43;5.60;;;3.78;;
15256;SDS011;7731;50.720;6.912;2023-07-31T04:09:14;5.30;;;3.45;;
15256;SDS011;7731;50.720;6.912;2023-07-31T04:11:44;5.93;;;3.55;;
15256;SDS011;7731;50.720;6.912;2023-07-31T04:14:21;6.32;;;4.22;;
15256;SDS011;7731;50.720;6.912;2023-07-31T04:16:51;4.97;;;3.20;;
15256;SDS011;7731;50.720;6.912;2023-07-31T04:19:26;5.13;;;3.67;;
15256;SDS011;7731;50.720;6.912;2023-07-31T04:21:56;5.88;;;3.83;;
15256;SDS011;7731;50.720;6.912;2023-07-31T04:24:35;5.80;;;3.72;;
15256;SDS011;7731;50.720;6.912;2023-07-31T04:27:08;6.60;;;4.05;;
15256;SDS011;7731;50.720;6.912;2023-07-31T04:29:42;5.70;;;3.85;;
15256;SDS011;7731;50.720;6.912;2023-07-31T04:32:14;5.03;;;3.70;;
15256;SDS011;7731;50.720;6.912;2023-07-31T04:34:45;6.13;;;3.88;;
15256;SDS011;7731;50.720;6.912;2023-07-31T04:37:16;5.32;;;3.58;;
15256;SDS011;7731;50.720;6.912;2023-07-31T04:39:49;4.30;;;3.80;;
15256;SDS011;7731;50.720;6.912;2023-07-31T04:42:19;5.35;;;3.38;;
15256;SDS011;7731;50.720;6.912;2023-07-31T04:44:52;4.90;;;3.47;;
15256;SDS011;7731;50.720;6.912;2023-07-31T04:47:25;6.75;;;3.67;;
15256;SDS011;7731;50.720;6.912;2023-07-31T04:49:59;8.77;;;4.20;;
15256;SDS011;7731;50.720;6.912;2023-07-31T04:52:30;5.25;;;3.72;;
15256;SDS011;7731;50.720;6.912;2023-07-31T04:55:00;6.50;;;3.50;;
15256;SDS011;7731;50.720;6.912;2023-07-31T04:57:30;4.43;;;3.13;;
15256;SDS011;7731;50.720;6.912;2023-07-31T05:00:03;5.38;;;3.00;;
15256;SDS011;7731;50.720;6.912;2023-07-31T05:02:38;6.05;;;3.28;;
15256;SDS011;7731;50.720;6.912;2023-07-31T05:05:18;4.53;;;3.10;;
15256;SDS011;7731;50.720;6.912;2023-07-31T05:07:48;6.15;;;3.22;;
15256;SDS011;7731;50.720;6.912;2023-07-31T05:10:21;4.90;;;3.47;;
15256;SDS011;7731;50.720;6.912;2023-07-31T05:12:54;3.58;;;3.13;;
15256;SDS011;7731;50.720;6.912;2023-07-31T05:15:27;6.07;;;3.40;;
15256;SDS011;7731;50.720;6.912;2023-07-31T05:17:58;5.90;;;2.80;;
15256;SDS011;7731;50.720;6.912;2023-07-31T05:20:28;6.10;;;3.05;;
15256;SDS011;7731;50.720;6.912;2023-07-31T05:22:58;5.22;;;3.42;;
15256;SDS011;7731;50.720;6.912;2023-07-31T05:25:29;4.38;;;2.83;;
15256;SDS011;7731;50.720;6.912;2023-07-31T05:27:59;5.75;;;3.50;;
15256;SDS011;7731;50.720;6.912;2023-07-31T05:30:36;4.95;;;2.88;;
15256;SDS011;7731;50.720;6.912;2023-07-31T05:33:14;4.68;;;2.97;;
15256;SDS011;7731;50.720;6.912;2023-07-31T05:35:44;4.63;;;2.63;;
15256;SDS011;7731;50.720;6.912;2023-07-31T05:38:18;6.13;;;3.00;;
15256;SDS011;7731;50.720;6.912;2023-07-31T05:40:48;4.57;;;2.80;;
15256;SDS011;7731;50.720;6.912;2023-07-31T05:43:19;4.63;;;3.60;;
15256;SDS011;7731;50.720;6.912;2023-07-31T05:45:59;3.75;;;3.00;;
15256;SDS011;7731;50.720;6.912;2023-07-31T05:48:32;4.60;;;3.42;;
15256;SDS011;7731;50.720;6.912;2023-07-31T05:51:03;6.00;;;3.30;;
15256;SDS011;7731;50.720;6.912;2023-07-31T05:53:42;5.03;;;3.38;;
15256;SDS011;7731;50.720;6.912;2023-07-31T05:56:15;6.45;;;4.05;;
15256;SDS011;7731;50.720;6.912;2023-07-31T05:58:46;5.72;;;3.20;;
15256;SDS011;7731;50.720;6.912;2023-07-31T06:01:19;7.22;;;3.95;;
15256;SDS011;7731;50.720;6.912;2023-07-31T06:03:53;5.50;;;3.53;;
15256;SDS011;7731;50.720;6.912;2023-07-31T06:06:23;5.07;;;3.60;;
15256;SDS011;7731;50.720;6.912;2023-07-31T06:08:54;9.38;;;3.95;;
15256;SDS011;7731;50.720;6.912;2023-07-31T06:11:24;5.57;;;3.88;;
15256;SDS011;7731;50.720;6.912;2023-07-31T06:13:55;5.28;;;3.50;;
15256;SDS011;7731;50.720;6.912;2023-07-31T06:16:28;6.28;;;3.47;;
15256;SDS011;7731;50.720;6.912;2023-07-31T06:18:58;5.15;;;3.88;;
15256;SDS011;7731;50.720;6.912;2023-07-31T06:21:30;5.35;;;4.10;;
15256;SDS011;7731;50.720;6.912;2023-07-31T06:24:04;7.00;;;4.32;;
15256;SDS011;7731;50.720;6.912;2023-07-31T06:26:35;5.32;;;4.05;;
15256;SDS011;7731;50.720;6.912;2023-07-31T06:29:19;7.30;;;4.28;;
15256;SDS011;7731;50.720;6.912;2023-07-31T06:31:52;5.95;;;4.10;;
15256;SDS011;7731;50.720;6.912;2023-07-31T06:34:29;6.50;;;4.22;;
15256;SDS011;7731;50.720;6.912;2023-07-31T06:37:05;5.85;;;3.97;;
15256;SDS011;7731;50.720;6.912;2023-07-31T06:39:35;6.65;;;4.20;;
15256;SDS011;7731;50.720;6.912;2023-07-31T06:42:09;5.00;;;3.92;;
15256;SDS011;7731;50.720;6.912;2023-07-31T06:44:53;8.10;;;3.97;;
15256;SDS011;7731;50.720;6.912;2023-07-31T06:47:32;5.75;;;3.92;;
15256;SDS011;7731;50.720;6.912;2023-07-31T06:50:03;5.53;;;4.40;;
15256;SDS011;7731;50.720;6.912;2023-07-31T06:52:37;6.95;;;3.83;;
15256;SDS011;7731;50.720;6.912;2023-07-31T06:55:16;4.63;;;3.88;;
15256;SDS011;7731;50.720;6.912;2023-07-31T06:57:49;4.30;;;3.67;;
15256;SDS011;7731;50.720;6.912;2023-07-31T07:00:23;6.15;;;4.07;;
15256;SDS011;7731;50.720;6.912;2023-07-31T07:02:56;5.75;;;3.90;;
15256;SDS011;7731;50.720;6.912;2023-07-31T07:05:29;4.85;;;3.65;;
15256;SDS011;7731;50.720;6.912;2023-07-31T07:07:59;4.82;;;3.40;;
15256;SDS011;7731;50.720;6.912;2023-07-31T07:10:30;5.00;;;3.88;;
15256;SDS011;7731;50.720;6.912;2023-07-31T07:13:00;5.47;;;3.45;;
15256;SDS011;7731;50.720;6.912;2023-07-31T07:15:33;6.28;;;3.97;;
15256;SDS011;7731;50.720;6.912;2023-07-31T07:18:13;7.05;;;3.28;;
15256;SDS011;7731;50.720;6.912;2023-07-31T07:20:51;4.32;;;3.40;;
15256;SDS011;7731;50.720;6.912;2023-07-31T07:23:24;5.35;;;3.92;;
15256;SDS011;7731;50.720;6.912;2023-07-31T07:25:58;5.03;;;3.58;;
15256;SDS011;7731;50.720;6.912;2023-07-31T07:28:28;7.55;;;3.92;;
15256;SDS011;7731;50.720;6.912;2023-07-31T07:31:06;4.88;;;3.75;;
15256;SDS011;7731;50.720;6.912;2023-07-31T07:33:39;8.48;;;4.00;;
15256;SDS011;7731;50.720;6.912;2023-07-31T07:36:09;5.28;;;3.72;;
15256;SDS011;7731;50.720;6.912;2023-07-31T07:38:40;6.85;;;4.18;;
15256;SDS011;7731;50.720;6.912;2023-07-31T07:41:10;7.25;;;3.88;;
15256;SDS011;7731;50.720;6.912;2023-07-31T07:43:46;6.97;;;4.13;;
15256;SDS011;7731;50.720;6.912;2023-07-31T07:46:17;5.68;;;3.80;;
15256;SDS011;7731;50.720;6.912;2023-07-31T07:48:51;5.18;;;3.78;;
15256;SDS011;7731;50.720;6.912;2023-07-31T07:51:21;4.95;;;3.58;;
15256;SDS011;7731;50.720;6.912;2023-07-31T07:53:51;6.18;;;3.60;;
15256;SDS011;7731;50.720;6.912;2023-07-31T07:56:22;5.88;;;3.63;;
15256;SDS011;7731;50.720;6.912;2023-07-31T07:58:54;5.53;;;3.45;;
15256;SDS011;7731;50.720;6.912;2023-07-31T08:01:25;4.68;;;3.28;;
15256;SDS011;7731;50.720;6.912;2023-07-31T08:04:05;4.43;;;3.58;;
15256;SDS011;7731;50.720;6.912;2023-07-31T08:06:35;5.65;;;3.63;;
15256;SDS011;7731;50.720;6.912;2023-07-31T08:09:07;4.20;;;3.35;;
15256;SDS011;7731;50.720;6.912;2023-07-31T08:11:39;4.55;;;3.15;;
15256;SDS011;7731;50.720;6.912;2023-07-31T08:14:10;5.03;;;3.25;;
15256;SDS011;7731;50.720;6.912;2023-07-31T08:16:40;6.85;;;2.83;;
15256;SDS011;7731;50.720;6.912;2023-07-31T08:19:18;5.15;;;2.90;;
15256;SDS011;7731;50.720;6.912;2023-07-31T08:21:48;4.97;;;2.65;;
15256;SDS011;7731;50.720;6.912;2023-07-31T08:24:23;4.50;;;3.10;;
15256;SDS011;7731;50.720;6.912;2023-07-31T08:26:53;5.28;;;2.80;;
15256;SDS011;7731;50.720;6.912;2023-07-31T08:29:24;4.25;;;2.88;;
15256;SDS011;7731;50.720;6.912;2023-07-31T08:31:55;4.35;;;2.88;;
15256;SDS011;7731;50.720;6.912;2023-07-31T08:34:28;3.97;;;2.70;;
15256;SDS011;7731;50.720;6.912;2023-07-31T08:36:58;3.90;;;2.38;;
15256;SDS011;7731;50.720;6.912;2023-07-31T08:39:29;4.70;;;2.53;;
15256;SDS011;7731;50.720;6.912;2023-07-31T08:41:59;2.85;;;2.28;;
15256;SDS011;7731;50.720;6.912;2023-07-31T08:44:29;3.05;;;2.33;;
15256;SDS011;7731;50.720;6.912;2023-07-31T08:47:01;4.18;;;2.80;;
15256;SDS011;7731;50.720;6.912;2023-07-31T08:49:38;2.60;;;2.40;;
15256;SDS011;7731;50.720;6.912;2023-07-31T08:52:10;3.42;;;2.35;;
15256;SDS011;7731;50.720;6.912;2023-07-31T08:54:40;4.55;;;2.20;;
15256;SDS011;7731;50.720;6.912;2023-07-31T08:57:10;3.08;;;2.28;;
15256;SDS011;7731;50.720;6.912;2023-07-31T08:59:41;3.42;;;2.50;;
15256;SDS011;7731;50.720;6.912;2023-07-31T09:02:14;3.00;;;2.47;;
15256;SDS011;7731;50.720;6.912;2023-07-31T09:04:50;3.20;;;2.00;;
15256;SDS011;7731;50.720;6.912;2023-07-31T09:07:24;2.70;;;2.10;;
15256;SDS011;7731;50.720;6.912;2023-07-31T09:09:55;2.60;;;2.05;;
15256;SDS011;7731;50.720;6.912;2023-07-31T09:12:25;3.03;;;2.00;;
15256;SDS011;7731;50.720;6.912;2023-07-31T09:14:55;4.07;;;2.28;;
15256;SDS011;7731;50.720;6.912;2023-07-31T09:17:29;3.95;;;2.45;;
15256;SDS011;7731;50.720;6.912;2023-07-31T09:20:15;3.28;;;2.30;;
15256;SDS011;7731;50.720;6.912;2023-07-31T09:22:57;3.22;;;2.50;;
15256;SDS011;7731;50.720;6.912;2023-07-31T09:25:37;2.55;;;2.00;;
15256;SDS011;7731;50.720;6.912;2023-07-31T09:28:13;3.38;;;2.15;;
15256;SDS011;7731;50.720;6.912;2023-07-31T09:30:48;3.38;;;2.03;;
15256;SDS011;7731;50.720;6.912;2023-07-31T09:33:27;2.90;;;1.80;;
15256;SDS011;7731;50.720;6.912;2023-07-31T09:36:11;2.78;;;1.98;;
15256;SDS011;7731;50.720;6.912;2023-07-31T09:38:41;4.30;;;2.40;;
15256;SDS011;7731;50.720;6.912;2023-07-31T09:41:12;3.25;;;2.20;;
15256;SDS011;7731;50.720;6.912;2023-07-31T09:43:44;3.50;;;2.03;;
15256;SDS011;7731;50.720;6.912;2023-07-31T09:46:24;3.33;;;1.90;;
15256;SDS011;7731;50.720;6.912;2023-07-31T09:49:06;5.88;;;2.30;;
15256;SDS011;7731;50.720;6.912;2023-07-31T09:55:14;5.88;;;2.65;;
15256;SDS011;7731;50.720;6.912;2023-07-31T09:57:45;6.00;;;2.38;;
15256;SDS011;7731;50.720;6.912;2023-07-31T10:00:17;4.85;;;2.47;;
15256;SDS011;7731;50.720;6.912;2023-07-31T10:02:51;2.83;;;2.28;;
15256;SDS011;7731;50.720;6.912;2023-07-31T10:05:23;3.58;;;2.00;;
15256;SDS011;7731;50.720;6.912;2023-07-31T10:08:02;3.47;;;1.83;;
15256;SDS011;7731;50.720;6.912;2023-07-31T10:10:43;3.63;;;2.15;;
15256;SDS011;7731;50.720;6.912;2023-07-31T10:13:22;2.42;;;1.90;;
15256;SDS011;7731;50.720;6.912;2023-07-31T10:15:52;3.35;;;2.30;;
15256;SDS011;7731;50.720;6.912;2023-07-31T10:18:23;8.38;;;2.20;;
15256;SDS011;7731;50.720;6.912;2023-07-31T10:20:56;4.78;;;2.53;;
15256;SDS011;7731;50.720;6.912;2023-07-31T10:23:26;2.72;;;1.90;;
15256;SDS011;7731;50.720;6.912;2023-07-31T10:26:08;2.80;;;2.00;;
15256;SDS011;7731;50.720;6.912;2023-07-31T10:28:40;3.45;;;1.75;;
15256;SDS011;7731;50.720;6.912;2023-07-31T10:31:12;3.40;;;2.10;;
15256;SDS011;7731;50.720;6.912;2023-07-31T10:33:43;3.70;;;2.30;;
15256;SDS011;7731;50.720;6.912;2023-07-31T10:36:14;11.02;;;3.30;;
15256;SDS011;7731;50.720;6.912;2023-07-31T10:38:48;4.35;;;2.17;;
15256;SDS011;7731;50.720;6.912;2023-07-31T10:41:22;12.60;;;3.40;;
15256;SDS011;7731;50.720;6.912;2023-07-31T10:43:59;3.85;;;1.50;;
15256;SDS011;7731;50.720;6.912;2023-07-31T10:46:32;3.80;;;1.73;;
15256;SDS011;7731;50.720;6.912;2023-07-31T10:49:03;2.88;;;2.08;;
15256;SDS011;7731;50.720;6.912;2023-07-31T10:51:34;2.60;;;1.80;;
15256;SDS011;7731;50.720;6.912;2023-07-31T10:54:11;2.63;;;1.45;;
15256;SDS011;7731;50.720;6.912;2023-07-31T10:56:47;3.40;;;1.83;;
15256;SDS011;7731;50.720;6.912;2023-07-31T10:59:20;2.30;;;1.50;;
15256;SDS011;7731;50.720;6.912;2023-07-31T11:01:57;2.20;;;1.35;;
15256;SDS011;7731;50.720;6.912;2023-07-31T11:04:29;2.75;;;1.48;;
15256;SDS011;7731;50.720;6.912;2023-07-31T11:07:07;1.92;;;1.45;;
15256;SDS011;7731;50.720;6.912;2023-07-31T11:09:39;4.18;;;1.38;;
15256;SDS011;7731;50.720;6.912;2023-07-31T11:12:12;3.90;;;1.58;;
15256;SDS011;7731;50.720;6.912;2023-07-31T11:14:44;4.65;;;1.98;;
15256;SDS011;7731;50.720;6.912;2023-07-31T11:17:24;1.77;;;1.50;;
15256;SDS011;7731;50.720;6.912;2023-07-31T11:19:55;3.10;;;1.55;;
15256;SDS011;7731;50.720;6.912;2023-07-31T11:22:25;1.75;;;1.27;;
15256;SDS011;7731;50.720;6.912;2023-07-31T11:25:00;1.98;;;1.10;;
15256;SDS011;7731;50.720;6.912;2023-07-31T11:27:38;1.45;;;1.15;;
15256;SDS011;7731;50.720;6.912;2023-07-31T11:30:12;2.28;;;1.15;;
15256;SDS011;7731;50.720;6.912;2023-07-31T11:32:42;1.98;;;1.23;;
15256;SDS011;7731;50.720;6.912;2023-07-31T11:35:13;2.17;;;1.20;;
15256;SDS011;7731;50.720;6.912;2023-07-31T11:37:45;1.10;;;0.93;;
15256;SDS011;7731;50.720;6.912;2023-07-31T11:40:26;2.40;;;1.20;;
15256;SDS011;7731;50.720;6.912;2023-07-31T11:43:03;0.95;;;0.82;;
15256;SDS011;7731;50.720;6.912;2023-07-31T11:45:34;3.20;;;0.90;;
15256;SDS011;7731;50.720;6.912;2023-07-31T11:48:07;1.13;;;0.95;;
15256;SDS011;7731;50.720;6.912;2023-07-31T11:50:39;0.98;;;0.88;;
15256;SDS011;7731;50.720;6.912;2023-07-31T11:53:09;3.75;;;0.90;;
15256;SDS011;7731;50.720;6.912;2023-07-31T11:55:43;1.25;;;1.13;;
15256;SDS011;7731;50.720;6.912;2023-07-31T11:58:18;1.92;;;1.10;;
15256;SDS011;7731;50.720;6.912;2023-07-31T12:00:53;1.80;;;1.30;;
15256;SDS011;7731;50.720;6.912;2023-07-31T12:03:34;1.52;;;1.40;;
15256;SDS011;7731;50.720;6.912;2023-07-31T12:06:06;3.03;;;1.73;;
15256;SDS011;7731;50.720;6.912;2023-07-31T12:08:47;1.70;;;1.40;;
15256;SDS011;7731;50.720;6.912;2023-07-31T12:11:20;2.38;;;1.70;;
15256;SDS011;7731;50.720;6.912;2023-07-31T12:13:53;2.00;;;1.73;;
15256;SDS011;7731;50.720;6.912;2023-07-31T12:16:25;2.78;;;1.70;;
15256;SDS011;7731;50.720;6.912;2023-07-31T12:18:56;2.75;;;1.80;;
15256;SDS011;7731;50.720;6.912;2023-07-31T12:21:27;2.45;;;2.10;;
15256;SDS011;7731;50.720;6.912;2023-07-31T12:23:59;2.85;;;2.05;;
15256;SDS011;7731;50.720;6.912;2023-07-31T12:26:33;3.00;;;2.63;;
15256;SDS011;7731;50.720;6.912;2023-07-31T12:29:12;6.90;;;2.80;;
15256;SDS011;7731;50.720;6.912;2023-07-31T12:31:42;3.65;;;2.88;;
15256;SDS011;7731;50.720;6.912;2023-07-31T12:34:15;2.97;;;2.42;;
15256;SDS011;7731;50.720;6.912;2023-07-31T12:40:21;4.50;;;2.47;;
15256;SDS011;7731;50.720;6.912;2023-07-31T12:43:04;5.13;;;3.35;;
15256;SDS011;7731;50.720;6.912;2023-07-31T12:45:37;3.72;;;2.83;;
15256;SDS011;7731;50.720;6.912;2023-07-31T12:48:07;6.20;;;3.83;;
15256;SDS011;7731;50.720;6.912;2023-07-31T12:50:38;3.65;;;3.22;;
15256;SDS011;7731;50.720;6.912;2023-07-31T12:53:08;3.75;;;3.45;;
15256;SDS011;7731;50.720;6.912;2023-07-31T12:55:38;3.95;;;3.55;;
15256;SDS011;7731;50.720;6.912;2023-07-31T12:58:09;3.78;;;3.45;;
15256;SDS011;7731;50.720;6.912;2023-07-31T13:00:42;3.60;;;3.00;;
15256;SDS011;7731;50.720;6.912;2023-07-31T13:03:19;4.30;;;3.25;;
15256;SDS011;7731;50.720;6.912;2023-07-31T13:05:52;4.13;;;3.00;;
15256;SDS011;7731;50.720;6.912;2023-07-31T13:08:23;3.97;;;3.00;;
15256;SDS011;7731;50.720;6.912;2023-07-31T13:10:53;3.83;;;3.10;;
15256;SDS011;7731;50.720;6.912;2023-07-31T13:13:23;4.30;;;3.28;;
15256;SDS011;7731;50.720;6.912;2023-07-31T13:16:04;3.22;;;2.92;;
15256;SDS011;7731;50.720;6.912;2023-07-31T13:18:34;3.25;;;2.67;;
15256;SDS011;7731;50.720;6.912;2023-07-31T13:21:04;4.00;;;2.50;;
15256;SDS011;7731;50.720;6.912;2023-07-31T13:23:38;3.45;;;2.67;;
15256;SDS011;7731;50.720;6.912;2023-07-31T13:26:11;2.92;;;2.25;;
15256;SDS011;7731;50.720;6.912;2023-07-31T13:28:41;3.70;;;1.92;;
15256;SDS011;7731;50.720;6.912;2023-07-31T13:34:02;2.55;;;2.35;;
15256;SDS011;7731;50.720;6.912;2023-07-31T13:36:32;2.10;;;1.90;;
15256;SDS011;7731;50.720;6.912;2023-07-31T13:39:04;2.63;;;1.95;;
15256;SDS011;7731;50.720;6.912;2023-07-31T13:41:37;1.95;;;1.85;;
15256;SDS011;7731;50.720;6.912;2023-07-31T13:44:08;2.03;;;1.83;;
15256;SDS011;7731;50.720;6.912;2023-07-31T13:46:43;2.30;;;2.03;;
15256;SDS011;7731;50.720;6.912;2023-07-31T13:49:13;2.47;;;2.25;;
15256;SDS011;7731;50.720;6.912;2023-07-31T13:51:44;2.20;;;2.00;;
15256;SDS011;7731;50.720;6.912;2023-07-31T13:54:17;2.40;;;2.20;;
15256;SDS011;7731;50.720;6.912;2023-07-31T13:56:48;3.60;;;2.20;;
15256;SDS011;7731;50.720;6.912;2023-07-31T13:59:20;3.20;;;2.20;;
15256;SDS011;7731;50.720;6.912;2023-07-31T14:01:53;2.63;;;2.42;;
15256;SDS011;7731;50.720;6.912;2023-07-31T14:04:29;2.58;;;2.38;;
15256;SDS011;7731;50.720;6.912;2023-07-31T14:07:12;2.45;;;2.25;;
15256;SDS011;7731;50.720;6.912;2023-07-31T14:09:44;3.03;;;2.25;;
15256;SDS011;7731;50.720;6.912;2023-07-31T14:12:14;2.50;;;2.13;;
15256;SDS011;7731;50.720;6.912;2023-07-31T14:15:05;2.33;;;2.00;;
15256;SDS011;7731;50.720;6.912;2023-07-31T14:17:42;2.47;;;2.10;;
15256;SDS011;7731;50.720;6.912;2023-07-31T14:20:15;2.38;;;2.13;;
15256;SDS011;7731;50.720;6.912;2023-07-31T14:22:47;1.83;;;1.67;;
15256;SDS011;7731;50.720;6.912;2023-07-31T14:25:17;2.00;;;1.73;;
15256;SDS011;7731;50.720;6.912;2023-07-31T14:27:48;2.00;;;1.88;;
15256;SDS011;7731;50.720;6.912;2023-07-31T14:30:20;2.67;;;1.90;;
15256;SDS011;7731;50.720;6.912;2023-07-31T14:32:53;3.35;;;2.10;;
15256;SDS011;7731;50.720;6.912;2023-07-31T14:35:24;2.33;;;2.10;;
15256;SDS011;7731;50.720;6.912;2023-07-31T14:37:54;2.90;;;1.90;;
15256;SDS011;7731;50.720;6.912;2023-07-31T14:40:24;2.53;;;2.30;;
15256;SDS011;7731;50.720;6.912;2023-07-31T14:42:57;2.83;;;2.05;;
15256;SDS011;7731;50.720;6.912;2023-07-31T14:45:27;2.78;;;2.40;;
15256;SDS011;7731;50.720;6.912;2023-07-31T14:48:03;2.40;;;2.20;;
15256;SDS011;7731;50.720;6.912;2023-07-31T14:50:34;2.40;;;2.20;;
15256;SDS011;7731;50.720;6.912;2023-07-31T14:53:04;3.13;;;2.30;;
15256;SDS011;7731;50.720;6.912;2023-07-31T14:55:35;2.45;;;2.25;;
15256;SDS011;7731;50.720;6.912;2023-07-31T14:58:07;3.58;;;2.60;;
15256;SDS011;7731;50.720;6.912;2023-07-31T15:00:40;2.80;;;2.55;;
15256;SDS011;7731;50.720;6.912;2023-07-31T15:03:13;2.85;;;2.58;;
15256;SDS011;7731;50.720;6.912;2023-07-31T15:05:43;3.13;;;2.45;;
15256;SDS011;7731;50.720;6.912;2023-07-31T15:08:16;2.47;;;2.28;;
15256;SDS011;7731;50.720;6.912;2023-07-31T15:10:49;3.45;;;2.45;;
15256;SDS011;7731;50.720;6.912;2023-07-31T15:13:23;2.60;;;2.40;;
15256;SDS011;7731;50.720;6.912;2023-07-31T15:15:54;2.50;;;2.30;;
15256;SDS011;7731;50.720;6.912;2023-07-31T15:18:27;2.40;;;2.20;;
15256;SDS011;7731;50.720;6.912;2023-07-31T15:20:57;2.88;;;2.58;;
15256;SDS011;7731;50.720;6.912;2023-07-31T15:23:28;2.95;;;2.63;;
15256;SDS011;7731;50.720;6.912;2023-07-31T15:26:01;3.30;;;2.70;;
15256;SDS011;7731;50.720;6.912;2023-07-31T15:28:34;2.95;;;2.67;;
15256;SDS011;7731;50.720;6.912;2023-07-31T15:31:05;3.35;;;3.05;;
15256;SDS011;7731;50.720;6.912;2023-07-31T15:33:38;4.88;;;2.90;;
15256;SDS011;7731;50.720;6.912;2023-07-31T15:36:08;5.05;;;3.20;;
15256;SDS011;7731;50.720;6.912;2023-07-31T15:38:41;3.97;;;3.33;;
15256;SDS011;7731;50.720;6.912;2023-07-31T15:41:12;5.07;;;2.95;;
15256;SDS011;7731;50.720;6.912;2023-07-31T15:43:45;3.38;;;3.08;;
15256;SDS011;7731;50.720;6.912;2023-07-31T15:46:16;4.10;;;3.70;;
15256;SDS011;7731;50.720;6.912;2023-07-31T15:48:49;3.75;;;3.38;;